sensor_id;sensor_type;location;lat;lon;timestamp;temperature;humidity
13446;DHT22;6795;51.232;3.764;2023-08-08T00:06:30;13.50;99.90
13446;DHT22;6795;51.232;3.764;2023-08-08T00:09:45;13.50;99.90
13446;DHT22;6795;51.232;3.764;2023-08-08T00:13:00;13.50;99.90
13446;DHT22;6795;51.232;3.764;2023-08-08T00:16:18;13.60;99.90
13446;DHT22;6795;51.232;3.764;2023-08-08T00:23:21;13.60;99.90
13446;DHT22;6795;51.232;3.764;2023-08-08T00:26:32;13.70;99.90
13446;DHT22;6795;51.232;3.764;2023-08-08T00:29:49;13.70;99.90
13446;DHT22;6795;51.232;3.764;2023-08-08T00:32:55;13.70;99.90
13446;DHT22;6795;51.232;3.764;2023-08-08T00:36:58;13.70;99.90
13446;DHT22;6795;51.232;3.764;2023-08-08T00:40:39;13.60;99.90
13446;DHT22;6795;51.232;3.764;2023-08-08T00:44:04;13.60;99.90
13446;DHT22;6795;51.232;3.764;2023-08-08T00:47:08;13.70;99.90
13446;DHT22;6795;51.232;3.764;2023-08-08T00:50:26;13.70;99.90
13446;DHT22;6795;51.232;3.764;2023-08-08T00:53:34;13.60;99.90
13446;DHT22;6795;51.232;3.764;2023-08-08T00:56:50;13.70;99.90
13446;DHT22;6795;51.232;3.764;2023-08-08T00:59:59;13.70;99.90
13446;DHT22;6795;51.232;3.764;2023-08-08T01:03:11;13.60;99.90
13446;DHT22;6795;51.232;3.764;2023-08-08T01:06:50;13.70;99.90
13446;DHT22;6795;51.232;3.764;2023-08-08T01:10:08;13.70;99.90
13446;DHT22;6795;51.232;3.764;2023-08-08T01:17:12;13.60;99.90
13446;DHT22;6795;51.232;3.764;2023-08-08T01:20:19;13.50;99.90
13446;DHT22;6795;51.232;3.764;2023-08-08T01:24:36;13.60;99.90
13446;DHT22;6795;51.232;3.764;2023-08-08T01:28:10;13.50;99.90
13446;DHT22;6795;51.232;3.764;2023-08-08T01:31:24;13.60;99.90
13446;DHT22;6795;51.232;3.764;2023-08-08T01:34:48;13.50;99.90
13446;DHT22;6795;51.232;3.764;2023-08-08T01:38:08;13.50;99.90
13446;DHT22;6795;51.232;3.764;2023-08-08T01:41:41;13.40;99.90
13446;DHT22;6795;51.232;3.764;2023-08-08T01:45:28;13.40;99.90
13446;DHT22;6795;51.232;3.764;2023-08-08T01:48:44;13.40;99.90
13446;DHT22;6795;51.232;3.764;2023-08-08T01:51:48;13.40;99.90
13446;DHT22;6795;51.232;3.764;2023-08-08T01:55:30;13.30;99.90
13446;DHT22;6795;51.232;3.764;2023-08-08T01:58:46;13.40;99.90
13446;DHT22;6795;51.232;3.764;2023-08-08T02:02:39;13.30;99.90
13446;DHT22;6795;51.232;3.764;2023-08-08T02:05:41;13.30;99.90
13446;DHT22;6795;51.232;3.764;2023-08-08T02:09:01;13.30;99.90
13446;DHT22;6795;51.232;3.764;2023-08-08T02:12:11;13.30;99.90
13446;DHT22;6795;51.232;3.764;2023-08-08T02:19:07;13.30;99.90
13446;DHT22;6795;51.232;3.764;2023-08-08T02:22:25;13.30;99.90
13446;DHT22;6795;51.232;3.764;2023-08-08T02:25:40;13.20;99.90
13446;DHT22;6795;51.232;3.764;2023-08-08T02:28:52;13.10;99.90
13446;DHT22;6795;51.232;3.764;2023-08-08T02:31:58;13.10;99.90
13446;DHT22;6795;51.232;3.764;2023-08-08T02:35:31;13.10;99.90
13446;DHT22;6795;51.232;3.764;2023-08-08T02:38:49;13.00;99.90
13446;DHT22;6795;51.232;3.764;2023-08-08T02:42:03;13.00;99.90
13446;DHT22;6795;51.232;3.764;2023-08-08T02:45:32;13.00;99.90
13446;DHT22;6795;51.232;3.764;2023-08-08T02:49:08;12.90;99.90
13446;DHT22;6795;51.232;3.764;2023-08-08T02:52:40;13.00;99.90
13446;DHT22;6795;51.232;3.764;2023-08-08T02:56:04;13.00;99.90
13446;DHT22;6795;51.232;3.764;2023-08-08T03:00:11;13.10;99.90
13446;DHT22;6795;51.232;3.764;2023-08-08T03:03:31;13.00;99.90
13446;DHT22;6795;51.232;3.764;2023-08-08T03:06:47;13.00;99.90
13446;DHT22;6795;51.232;3.764;2023-08-08T03:09:59;13.00;99.90
13446;DHT22;6795;51.232;3.764;2023-08-08T03:14:05;12.90;99.90
13446;DHT22;6795;51.232;3.764;2023-08-08T03:16:35;13.00;99.90
13446;DHT22;6795;51.232;3.764;2023-08-08T03:19:53;13.10;99.90
13446;DHT22;6795;51.232;3.764;2023-08-08T03:22:59;13.10;99.90
13446;DHT22;6795;51.232;3.764;2023-08-08T03:30:26;13.00;99.90
13446;DHT22;6795;51.232;3.764;2023-08-08T03:33:43;13.00;99.90
13446;DHT22;6795;51.232;3.764;2023-08-08T03:37:29;13.00;99.90
13446;DHT22;6795;51.232;3.764;2023-08-08T03:40:29;12.90;99.90
13446;DHT22;6795;51.232;3.764;2023-08-08T03:43:51;12.90;99.90
13446;DHT22;6795;51.232;3.764;2023-08-08T03:50:21;13.00;99.90
13446;DHT22;6795;51.232;3.764;2023-08-08T03:53:41;12.90;99.90
13446;DHT22;6795;51.232;3.764;2023-08-08T03:56:56;12.90;99.90
13446;DHT22;6795;51.232;3.764;2023-08-08T04:00:14;12.80;99.90
13446;DHT22;6795;51.232;3.764;2023-08-08T04:03:25;12.80;99.90
13446;DHT22;6795;51.232;3.764;2023-08-08T04:06:31;12.80;99.90
13446;DHT22;6795;51.232;3.764;2023-08-08T04:11:55;12.80;99.90
13446;DHT22;6795;51.232;3.764;2023-08-08T04:13:12;12.80;99.90
13446;DHT22;6795;51.232;3.764;2023-08-08T04:16:35;12.80;99.90
13446;DHT22;6795;51.232;3.764;2023-08-08T04:19:47;12.90;99.90
13446;DHT22;6795;51.232;3.764;2023-08-08T04:23:29;13.00;99.90
13446;DHT22;6795;51.232;3.764;2023-08-08T04:26:47;12.90;99.90
13446;DHT22;6795;51.232;3.764;2023-08-08T04:30:27;13.00;99.90
13446;DHT22;6795;51.232;3.764;2023-08-08T04:33:44;12.90;99.90
13446;DHT22;6795;51.232;3.764;2023-08-08T04:37:29;12.90;99.90
13446;DHT22;6795;51.232;3.764;2023-08-08T04:40:35;12.90;99.90
13446;DHT22;6795;51.232;3.764;2023-08-08T04:43:35;13.00;99.90
13446;DHT22;6795;51.232;3.764;2023-08-08T04:46:39;13.10;99.90
13446;DHT22;6795;51.232;3.764;2023-08-08T04:49:40;13.10;99.90
13446;DHT22;6795;51.232;3.764;2023-08-08T04:53:06;13.10;99.90
13446;DHT22;6795;51.232;3.764;2023-08-08T04:56:20;13.10;99.90
13446;DHT22;6795;51.232;3.764;2023-08-08T04:59:41;13.20;99.90
13446;DHT22;6795;51.232;3.764;2023-08-08T05:03:00;13.30;99.90
13446;DHT22;6795;51.232;3.764;2023-08-08T05:06:52;13.40;99.90
13446;DHT22;6795;51.232;3.764;2023-08-08T05:10:32;13.60;99.90
13446;DHT22;6795;51.232;3.764;2023-08-08T05:14:09;13.80;99.90
13446;DHT22;6795;51.232;3.764;2023-08-08T05:18:15;14.20;99.90
13446;DHT22;6795;51.232;3.764;2023-08-08T05:21:15;14.50;99.90
13446;DHT22;6795;51.232;3.764;2023-08-08T05:28:08;14.90;99.90
13446;DHT22;6795;51.232;3.764;2023-08-08T05:36:07;14.80;99.90
13446;DHT22;6795;51.232;3.764;2023-08-08T05:39:47;14.60;99.90
13446;DHT22;6795;51.232;3.764;2023-08-08T05:43:08;14.50;99.90
13446;DHT22;6795;51.232;3.764;2023-08-08T05:46:25;14.70;99.90
13446;DHT22;6795;51.232;3.764;2023-08-08T05:50:00;15.10;99.90
13446;DHT22;6795;51.232;3.764;2023-08-08T05:53:31;15.40;99.90
13446;DHT22;6795;51.232;3.764;2023-08-08T05:56:37;15.40;99.90
13446;DHT22;6795;51.232;3.764;2023-08-08T06:00:23;15.40;99.90
13446;DHT22;6795;51.232;3.764;2023-08-08T06:03:46;15.60;99.90
13446;DHT22;6795;51.232;3.764;2023-08-08T06:07:17;15.70;99.90
13446;DHT22;6795;51.232;3.764;2023-08-08T06:10:58;15.70;99.90
13446;DHT22;6795;51.232;3.764;2023-08-08T06:13:56;15.70;99.90
13446;DHT22;6795;51.232;3.764;2023-08-08T06:17:30;15.60;99.90
13446;DHT22;6795;51.232;3.764;2023-08-08T06:20:49;15.60;99.90
13446;DHT22;6795;51.232;3.764;2023-08-08T06:23:50;15.50;99.90
13446;DHT22;6795;51.232;3.764;2023-08-08T06:27:15;15.50;99.90
13446;DHT22;6795;51.232;3.764;2023-08-08T06:30:30;15.40;99.90
13446;DHT22;6795;51.232;3.764;2023-08-08T06:33:51;15.40;99.90
13446;DHT22;6795;51.232;3.764;2023-08-08T06:37:04;15.30;99.90
13446;DHT22;6795;51.232;3.764;2023-08-08T06:40:57;15.20;99.90
13446;DHT22;6795;51.232;3.764;2023-08-08T06:43:45;15.20;99.90
13446;DHT22;6795;51.232;3.764;2023-08-08T06:47:53;15.20;99.90
13446;DHT22;6795;51.232;3.764;2023-08-08T06:54:33;15.30;99.90
13446;DHT22;6795;51.232;3.764;2023-08-08T06:57:43;15.50;99.90
13446;DHT22;6795;51.232;3.764;2023-08-08T07:05:17;15.60;99.90
13446;DHT22;6795;51.232;3.764;2023-08-08T07:08:21;15.70;99.90
13446;DHT22;6795;51.232;3.764;2023-08-08T07:11:49;15.90;99.90
13446;DHT22;6795;51.232;3.764;2023-08-08T07:15:05;16.00;99.90
13446;DHT22;6795;51.232;3.764;2023-08-08T07:19:01;16.10;99.90
13446;DHT22;6795;51.232;3.764;2023-08-08T07:22:16;16.00;99.90
13446;DHT22;6795;51.232;3.764;2023-08-08T07:25:35;16.00;99.90
13446;DHT22;6795;51.232;3.764;2023-08-08T07:28:51;15.90;99.90
13446;DHT22;6795;51.232;3.764;2023-08-08T07:32:09;15.90;99.90
13446;DHT22;6795;51.232;3.764;2023-08-08T07:39:31;16.00;99.90
13446;DHT22;6795;51.232;3.764;2023-08-08T07:43:32;16.20;99.90
13446;DHT22;6795;51.232;3.764;2023-08-08T07:46:20;16.30;99.90
13446;DHT22;6795;51.232;3.764;2023-08-08T07:49:31;16.30;99.90
13446;DHT22;6795;51.232;3.764;2023-08-08T07:56:49;16.50;99.90
13446;DHT22;6795;51.232;3.764;2023-08-08T08:00:20;16.50;99.90
13446;DHT22;6795;51.232;3.764;2023-08-08T08:03:46;16.50;99.90
13446;DHT22;6795;51.232;3.764;2023-08-08T08:06:58;16.50;99.90
13446;DHT22;6795;51.232;3.764;2023-08-08T08:18:04;16.60;99.90
13446;DHT22;6795;51.232;3.764;2023-08-08T08:21:17;16.80;99.90
13446;DHT22;6795;51.232;3.764;2023-08-08T08:25:01;17.00;99.90
13446;DHT22;6795;51.232;3.764;2023-08-08T08:27:57;17.40;99.90
13446;DHT22;6795;51.232;3.764;2023-08-08T08:31:15;17.70;99.90
13446;DHT22;6795;51.232;3.764;2023-08-08T08:34:18;18.00;99.90
13446;DHT22;6795;51.232;3.764;2023-08-08T08:37:37;18.10;99.90
13446;DHT22;6795;51.232;3.764;2023-08-08T08:40:56;18.40;99.90
13446;DHT22;6795;51.232;3.764;2023-08-08T08:44:33;18.80;99.90
13446;DHT22;6795;51.232;3.764;2023-08-08T08:48:25;19.10;99.90
13446;DHT22;6795;51.232;3.764;2023-08-08T08:51:39;19.30;99.90
13446;DHT22;6795;51.232;3.764;2023-08-08T08:54:49;19.00;99.90
13446;DHT22;6795;51.232;3.764;2023-08-08T08:58:40;18.90;99.90
13446;DHT22;6795;51.232;3.764;2023-08-08T09:01:55;19.20;99.90
13446;DHT22;6795;51.232;3.764;2023-08-08T09:05:05;20.00;99.90
13446;DHT22;6795;51.232;3.764;2023-08-08T09:08:38;20.20;99.90
13446;DHT22;6795;51.232;3.764;2023-08-08T09:12:41;20.90;99.90
13446;DHT22;6795;51.232;3.764;2023-08-08T09:15:49;21.20;99.90
13446;DHT22;6795;51.232;3.764;2023-08-08T09:19:10;21.40;99.90
13446;DHT22;6795;51.232;3.764;2023-08-08T09:22:48;21.80;99.90
13446;DHT22;6795;51.232;3.764;2023-08-08T09:26:20;21.30;99.90
13446;DHT22;6795;51.232;3.764;2023-08-08T09:29:55;21.30;99.90
13446;DHT22;6795;51.232;3.764;2023-08-08T09:33:00;21.30;99.90
13446;DHT22;6795;51.232;3.764;2023-08-08T09:36:45;21.30;99.90
13446;DHT22;6795;51.232;3.764;2023-08-08T09:40:12;21.10;99.90
13446;DHT22;6795;51.232;3.764;2023-08-08T09:43:38;20.50;99.90
13446;DHT22;6795;51.232;3.764;2023-08-08T09:46:59;20.10;99.90
13446;DHT22;6795;51.232;3.764;2023-08-08T09:50:29;20.10;99.90
13446;DHT22;6795;51.232;3.764;2023-08-08T09:53:44;20.50;99.90
13446;DHT22;6795;51.232;3.764;2023-08-08T09:56:52;21.00;99.90
13446;DHT22;6795;51.232;3.764;2023-08-08T10:00:35;21.40;99.90
13446;DHT22;6795;51.232;3.764;2023-08-08T10:03:53;21.90;99.90
13446;DHT22;6795;51.232;3.764;2023-08-08T10:07:28;22.40;99.90
13446;DHT22;6795;51.232;3.764;2023-08-08T10:10:48;22.50;99.90
13446;DHT22;6795;51.232;3.764;2023-08-08T10:14:01;22.50;99.90
13446;DHT22;6795;51.232;3.764;2023-08-08T10:17:22;23.10;99.90
13446;DHT22;6795;51.232;3.764;2023-08-08T10:20:33;23.90;99.90
13446;DHT22;6795;51.232;3.764;2023-08-08T10:23:47;23.60;99.90
13446;DHT22;6795;51.232;3.764;2023-08-08T10:27:36;23.20;99.90
13446;DHT22;6795;51.232;3.764;2023-08-08T10:30:40;22.80;99.90
13446;DHT22;6795;51.232;3.764;2023-08-08T10:34:06;22.20;99.90
13446;DHT22;6795;51.232;3.764;2023-08-08T10:37:27;21.80;99.90
13446;DHT22;6795;51.232;3.764;2023-08-08T10:41:15;22.00;99.90
13446;DHT22;6795;51.232;3.764;2023-08-08T10:43:57;21.90;99.90
13446;DHT22;6795;51.232;3.764;2023-08-08T10:47:34;21.70;99.90
13446;DHT22;6795;51.232;3.764;2023-08-08T10:54:40;21.70;99.90
13446;DHT22;6795;51.232;3.764;2023-08-08T10:58:22;22.40;99.90
13446;DHT22;6795;51.232;3.764;2023-08-08T11:02:05;23.10;99.90
13446;DHT22;6795;51.232;3.764;2023-08-08T11:05:31;23.50;99.90
13446;DHT22;6795;51.232;3.764;2023-08-08T11:09:08;23.50;99.90
13446;DHT22;6795;51.232;3.764;2023-08-08T11:12:39;23.80;99.90
13446;DHT22;6795;51.232;3.764;2023-08-08T11:15:29;23.90;99.90
13446;DHT22;6795;51.232;3.764;2023-08-08T11:19:22;23.40;99.90
13446;DHT22;6795;51.232;3.764;2023-08-08T11:22:34;22.60;99.90
13446;DHT22;6795;51.232;3.764;2023-08-08T11:26:03;22.00;99.90
13446;DHT22;6795;51.232;3.764;2023-08-08T11:29:34;22.30;99.90
13446;DHT22;6795;51.232;3.764;2023-08-08T11:32:53;22.70;99.90
13446;DHT22;6795;51.232;3.764;2023-08-08T11:36:48;23.20;99.90
13446;DHT22;6795;51.232;3.764;2023-08-08T11:39:36;23.30;99.90
13446;DHT22;6795;51.232;3.764;2023-08-08T11:43:10;23.70;99.90
13446;DHT22;6795;51.232;3.764;2023-08-08T11:46:46;24.00;99.90
13446;DHT22;6795;51.232;3.764;2023-08-08T11:50:08;23.60;99.90
13446;DHT22;6795;51.232;3.764;2023-08-08T11:53:18;23.70;99.90
13446;DHT22;6795;51.232;3.764;2023-08-08T11:56:32;23.70;99.90
13446;DHT22;6795;51.232;3.764;2023-08-08T12:00:43;23.80;99.90
13446;DHT22;6795;51.232;3.764;2023-08-08T12:03:56;23.30;99.90
13446;DHT22;6795;51.232;3.764;2023-08-08T12:10:50;22.60;99.90
13446;DHT22;6795;51.232;3.764;2023-08-08T12:14:10;22.60;99.90
13446;DHT22;6795;51.232;3.764;2023-08-08T12:18:05;22.50;99.90
13446;DHT22;6795;51.232;3.764;2023-08-08T12:21:07;22.80;99.90
13446;DHT22;6795;51.232;3.764;2023-08-08T12:24:54;23.10;99.90
13446;DHT22;6795;51.232;3.764;2023-08-08T12:28:19;23.50;99.90
13446;DHT22;6795;51.232;3.764;2023-08-08T12:31:31;23.60;99.90
13446;DHT22;6795;51.232;3.764;2023-08-08T12:35:10;23.40;99.90
13446;DHT22;6795;51.232;3.764;2023-08-08T12:38:21;23.30;99.90
13446;DHT22;6795;51.232;3.764;2023-08-08T12:41:48;23.30;99.90
13446;DHT22;6795;51.232;3.764;2023-08-08T12:45:06;23.40;99.90
13446;DHT22;6795;51.232;3.764;2023-08-08T12:48:12;23.30;99.90
13446;DHT22;6795;51.232;3.764;2023-08-08T12:51:43;23.90;99.90
13446;DHT22;6795;51.232;3.764;2023-08-08T12:54:52;24.00;99.90
13446;DHT22;6795;51.232;3.764;2023-08-08T12:58:10;23.90;99.90
13446;DHT22;6795;51.232;3.764;2023-08-08T13:01:18;24.30;99.90
13446;DHT22;6795;51.232;3.764;2023-08-08T13:07:53;24.20;99.90
13446;DHT22;6795;51.232;3.764;2023-08-08T13:11:20;23.70;99.90
13446;DHT22;6795;51.232;3.764;2023-08-08T13:14:37;23.70;99.90
13446;DHT22;6795;51.232;3.764;2023-08-08T13:17:40;23.80;99.90
13446;DHT22;6795;51.232;3.764;2023-08-08T13:21:03;23.70;99.90
13446;DHT22;6795;51.232;3.764;2023-08-08T13:28:16;23.50;99.90
13446;DHT22;6795;51.232;3.764;2023-08-08T13:35:15;23.90;99.90
13446;DHT22;6795;51.232;3.764;2023-08-08T13:38:25;24.10;99.90
13446;DHT22;6795;51.232;3.764;2023-08-08T13:41:42;23.80;99.90
13446;DHT22;6795;51.232;3.764;2023-08-08T13:44:56;23.30;99.90
13446;DHT22;6795;51.232;3.764;2023-08-08T13:48:25;22.90;99.90
13446;DHT22;6795;51.232;3.764;2023-08-08T13:51:33;22.50;99.90
13446;DHT22;6795;51.232;3.764;2023-08-08T13:54:50;22.10;99.90
13446;DHT22;6795;51.232;3.764;2023-08-08T13:58:27;21.80;99.90
13446;DHT22;6795;51.232;3.764;2023-08-08T14:09:33;21.20;99.90
13446;DHT22;6795;51.232;3.764;2023-08-08T14:12:54;21.10;99.90
13446;DHT22;6795;51.232;3.764;2023-08-08T14:15:57;21.00;99.90
13446;DHT22;6795;51.232;3.764;2023-08-08T14:19:17;21.00;99.90
13446;DHT22;6795;51.232;3.764;2023-08-08T14:22:26;20.90;99.90
13446;DHT22;6795;51.232;3.764;2023-08-08T14:30:28;20.50;99.90
13446;DHT22;6795;51.232;3.764;2023-08-08T14:33:50;20.20;99.90
13446;DHT22;6795;51.232;3.764;2023-08-08T14:37:04;19.90;99.90
13446;DHT22;6795;51.232;3.764;2023-08-08T14:40:33;19.70;99.90
13446;DHT22;6795;51.232;3.764;2023-08-08T14:43:45;19.40;99.90
13446;DHT22;6795;51.232;3.764;2023-08-08T14:51:54;19.40;99.90
13446;DHT22;6795;51.232;3.764;2023-08-08T14:58:34;19.40;99.90
13446;DHT22;6795;51.232;3.764;2023-08-08T15:01:41;19.50;99.90
13446;DHT22;6795;51.232;3.764;2023-08-08T15:04:53;19.50;99.90
13446;DHT22;6795;51.232;3.764;2023-08-08T15:08:12;19.50;99.90
13446;DHT22;6795;51.232;3.764;2023-08-08T15:11:22;19.40;99.90
13446;DHT22;6795;51.232;3.764;2023-08-08T15:14:51;19.30;99.90
13446;DHT22;6795;51.232;3.764;2023-08-08T15:18:28;19.20;99.90
13446;DHT22;6795;51.232;3.764;2023-08-08T15:21:51;19.30;99.90
13446;DHT22;6795;51.232;3.764;2023-08-08T15:25:30;19.10;99.90
13446;DHT22;6795;51.232;3.764;2023-08-08T15:29:06;18.70;99.90
13446;DHT22;6795;51.232;3.764;2023-08-08T15:32:22;18.20;99.90
13446;DHT22;6795;51.232;3.764;2023-08-08T15:35:38;17.80;99.90
13446;DHT22;6795;51.232;3.764;2023-08-08T15:39:26;17.60;99.90
13446;DHT22;6795;51.232;3.764;2023-08-08T15:42:52;17.30;99.90
13446;DHT22;6795;51.232;3.764;2023-08-08T15:46:14;17.40;99.90
13446;DHT22;6795;51.232;3.764;2023-08-08T15:49:23;17.50;99.90
13446;DHT22;6795;51.232;3.764;2023-08-08T15:54:16;17.50;99.90
13446;DHT22;6795;51.232;3.764;2023-08-08T15:59:17;17.30;99.90
13446;DHT22;6795;51.232;3.764;2023-08-08T16:02:55;17.30;99.90
13446;DHT22;6795;51.232;3.764;2023-08-08T16:06:42;17.20;99.90
13446;DHT22;6795;51.232;3.764;2023-08-08T16:09:46;17.20;99.90
13446;DHT22;6795;51.232;3.764;2023-08-08T16:13:01;17.20;99.90
13446;DHT22;6795;51.232;3.764;2023-08-08T16:16:35;17.10;99.90
13446;DHT22;6795;51.232;3.764;2023-08-08T16:19:44;17.10;99.90
13446;DHT22;6795;51.232;3.764;2023-08-08T16:23:12;17.10;99.90
13446;DHT22;6795;51.232;3.764;2023-08-08T16:26:31;17.20;99.90
13446;DHT22;6795;51.232;3.764;2023-08-08T16:29:30;17.20;99.90
13446;DHT22;6795;51.232;3.764;2023-08-08T16:33:13;17.20;99.90
13446;DHT22;6795;51.232;3.764;2023-08-08T16:36:45;17.20;99.90
13446;DHT22;6795;51.232;3.764;2023-08-08T16:40:12;17.20;99.90
13446;DHT22;6795;51.232;3.764;2023-08-08T16:43:34;17.20;99.90
13446;DHT22;6795;51.232;3.764;2023-08-08T16:46:50;17.10;99.90
13446;DHT22;6795;51.232;3.764;2023-08-08T16:50:22;17.10;99.90
13446;DHT22;6795;51.232;3.764;2023-08-08T16:53:52;17.10;99.90
13446;DHT22;6795;51.232;3.764;2023-08-08T16:57:03;17.20;99.90
13446;DHT22;6795;51.232;3.764;2023-08-08T17:00:49;17.10;99.90
13446;DHT22;6795;51.232;3.764;2023-08-08T17:03:55;17.00;99.90
13446;DHT22;6795;51.232;3.764;2023-08-08T17:11:08;17.10;99.90
13446;DHT22;6795;51.232;3.764;2023-08-08T17:18:05;16.90;99.90
13446;DHT22;6795;51.232;3.764;2023-08-08T17:21:35;16.80;99.90
13446;DHT22;6795;51.232;3.764;2023-08-08T17:25:16;16.80;99.90
13446;DHT22;6795;51.232;3.764;2023-08-08T17:28:51;16.80;99.90
13446;DHT22;6795;51.232;3.764;2023-08-08T17:32:23;16.80;99.90
13446;DHT22;6795;51.232;3.764;2023-08-08T17:35:52;16.80;99.90
13446;DHT22;6795;51.232;3.764;2023-08-08T17:38:56;16.70;99.90
13446;DHT22;6795;51.232;3.764;2023-08-08T17:42:18;16.60;99.90
13446;DHT22;6795;51.232;3.764;2023-08-08T17:45:30;16.50;99.90
13446;DHT22;6795;51.232;3.764;2023-08-08T17:48:47;16.50;99.90
13446;DHT22;6795;51.232;3.764;2023-08-08T17:52:06;16.50;99.90
13446;DHT22;6795;51.232;3.764;2023-08-08T17:55:45;16.40;99.90
13446;DHT22;6795;51.232;3.764;2023-08-08T17:59:18;16.30;99.90
13446;DHT22;6795;51.232;3.764;2023-08-08T18:02:12;16.20;99.90
13446;DHT22;6795;51.232;3.764;2023-08-08T18:06:01;16.10;99.90
13446;DHT22;6795;51.232;3.764;2023-08-08T18:09:59;16.00;99.90
13446;DHT22;6795;51.232;3.764;2023-08-08T18:13:09;16.00;99.90
13446;DHT22;6795;51.232;3.764;2023-08-08T18:16:21;15.90;99.90
13446;DHT22;6795;51.232;3.764;2023-08-08T18:19:36;15.90;99.90
13446;DHT22;6795;51.232;3.764;2023-08-08T18:22:26;15.90;99.90
13446;DHT22;6795;51.232;3.764;2023-08-08T18:25:46;15.90;99.90
13446;DHT22;6795;51.232;3.764;2023-08-08T18:28:53;15.90;99.90
13446;DHT22;6795;51.232;3.764;2023-08-08T18:32:33;15.90;99.90
13446;DHT22;6795;51.232;3.764;2023-08-08T18:36:01;15.90;99.90
13446;DHT22;6795;51.232;3.764;2023-08-08T18:39:19;15.90;99.90
13446;DHT22;6795;51.232;3.764;2023-08-08T18:42:24;15.80;99.90
13446;DHT22;6795;51.232;3.764;2023-08-08T18:45:51;15.80;99.90
13446;DHT22;6795;51.232;3.764;2023-08-08T18:49:32;15.80;99.90
13446;DHT22;6795;51.232;3.764;2023-08-08T18:52:47;15.70;99.90
13446;DHT22;6795;51.232;3.764;2023-08-08T18:55:55;15.80;99.90
13446;DHT22;6795;51.232;3.764;2023-08-08T18:59:19;15.80;99.90
13446;DHT22;6795;51.232;3.764;2023-08-08T19:02:51;15.80;99.90
13446;DHT22;6795;51.232;3.764;2023-08-08T19:05:56;15.80;99.90
13446;DHT22;6795;51.232;3.764;2023-08-08T19:09:14;15.80;99.90
13446;DHT22;6795;51.232;3.764;2023-08-08T19:13:04;15.80;99.90
13446;DHT22;6795;51.232;3.764;2023-08-08T19:16:43;15.70;99.90
13446;DHT22;6795;51.232;3.764;2023-08-08T19:23:10;15.80;99.90
13446;DHT22;6795;51.232;3.764;2023-08-08T19:26:50;15.80;99.90
13446;DHT22;6795;51.232;3.764;2023-08-08T19:30:09;15.80;99.90
13446;DHT22;6795;51.232;3.764;2023-08-08T19:33:34;15.80;99.90
13446;DHT22;6795;51.232;3.764;2023-08-08T19:36:48;15.80;99.90
13446;DHT22;6795;51.232;3.764;2023-08-08T19:39:47;15.80;99.90
13446;DHT22;6795;51.232;3.764;2023-08-08T19:43:15;15.80;99.90
13446;DHT22;6795;51.232;3.764;2023-08-08T19:47:20;15.80;99.90
13446;DHT22;6795;51.232;3.764;2023-08-08T19:50:28;15.90;99.90
13446;DHT22;6795;51.232;3.764;2023-08-08T19:53:35;15.90;99.90
13446;DHT22;6795;51.232;3.764;2023-08-08T19:57:05;15.90;99.90
13446;DHT22;6795;51.232;3.764;2023-08-08T20:00:51;15.80;99.90
13446;DHT22;6795;51.232;3.764;2023-08-08T20:04:02;15.90;99.90
13446;DHT22;6795;51.232;3.764;2023-08-08T20:08:20;15.80;99.90
13446;DHT22;6795;51.232;3.764;2023-08-08T20:11:34;15.80;99.90
13446;DHT22;6795;51.232;3.764;2023-08-08T20:14:51;15.80;99.90
13446;DHT22;6795;51.232;3.764;2023-08-08T20:18:16;15.90;99.90
13446;DHT22;6795;51.232;3.764;2023-08-08T20:21:53;15.90;99.90
13446;DHT22;6795;51.232;3.764;2023-08-08T20:25:08;15.90;99.90
13446;DHT22;6795;51.232;3.764;2023-08-08T20:28:21;15.90;99.90
13446;DHT22;6795;51.232;3.764;2023-08-08T20:31:41;15.90;99.90
13446;DHT22;6795;51.232;3.764;2023-08-08T20:39:12;15.90;99.90
13446;DHT22;6795;51.232;3.764;2023-08-08T20:43:03;16.00;99.90
13446;DHT22;6795;51.232;3.764;2023-08-08T20:48:30;16.00;99.90
13446;DHT22;6795;51.232;3.764;2023-08-08T20:50:18;15.90;99.90
13446;DHT22;6795;51.232;3.764;2023-08-08T20:53:28;15.90;99.90
13446;DHT22;6795;51.232;3.764;2023-08-08T20:56:51;16.00;99.90
13446;DHT22;6795;51.232;3.764;2023-08-08T21:00:16;16.00;99.90
13446;DHT22;6795;51.232;3.764;2023-08-08T21:03:46;16.00;99.90
13446;DHT22;6795;51.232;3.764;2023-08-08T21:06:58;15.90;99.90
13446;DHT22;6795;51.232;3.764;2023-08-08T21:10:19;16.00;99.90
13446;DHT22;6795;51.232;3.764;2023-08-08T21:14:35;15.90;99.90
13446;DHT22;6795;51.232;3.764;2023-08-08T21:17:55;15.90;99.90
13446;DHT22;6795;51.232;3.764;2023-08-08T21:21:04;16.00;99.90
13446;DHT22;6795;51.232;3.764;2023-08-08T21:24:36;16.00;99.90
13446;DHT22;6795;51.232;3.764;2023-08-08T21:27:59;16.00;99.90
13446;DHT22;6795;51.232;3.764;2023-08-08T21:31:38;16.00;99.90
13446;DHT22;6795;51.232;3.764;2023-08-08T21:34:42;16.10;99.90
13446;DHT22;6795;51.232;3.764;2023-08-08T21:37:58;16.00;99.90
13446;DHT22;6795;51.232;3.764;2023-08-08T21:41:23;16.10;99.90
13446;DHT22;6795;51.232;3.764;2023-08-08T21:45:01;16.20;99.90
13446;DHT22;6795;51.232;3.764;2023-08-08T21:48:14;16.20;99.90
13446;DHT22;6795;51.232;3.764;2023-08-08T21:51:24;16.20;99.90
13446;DHT22;6795;51.232;3.764;2023-08-08T21:54:47;16.30;99.90
13446;DHT22;6795;51.232;3.764;2023-08-08T21:58:28;16.30;99.90
13446;DHT22;6795;51.232;3.764;2023-08-08T22:01:29;16.30;99.90
13446;DHT22;6795;51.232;3.764;2023-08-08T22:05:16;16.30;99.90
13446;DHT22;6795;51.232;3.764;2023-08-08T22:08:36;16.40;99.90
13446;DHT22;6795;51.232;3.764;2023-08-08T22:12:01;16.40;99.90
13446;DHT22;6795;51.232;3.764;2023-08-08T22:15:12;16.40;99.90
13446;DHT22;6795;51.232;3.764;2023-08-08T22:18:20;16.50;99.90
13446;DHT22;6795;51.232;3.764;2023-08-08T22:21:41;16.50;99.90
13446;DHT22;6795;51.232;3.764;2023-08-08T22:25:15;16.40;99.90
13446;DHT22;6795;51.232;3.764;2023-08-08T22:28:21;16.50;99.90
13446;DHT22;6795;51.232;3.764;2023-08-08T22:31:32;16.50;99.90
13446;DHT22;6795;51.232;3.764;2023-08-08T22:34:50;16.50;99.90
13446;DHT22;6795;51.232;3.764;2023-08-08T22:38:59;16.50;99.90
13446;DHT22;6795;51.232;3.764;2023-08-08T22:42:15;16.50;99.90
13446;DHT22;6795;51.232;3.764;2023-08-08T22:45:47;16.50;99.90
13446;DHT22;6795;51.232;3.764;2023-08-08T22:48:50;16.50;99.90
13446;DHT22;6795;51.232;3.764;2023-08-08T22:52:17;16.50;99.90
13446;DHT22;6795;51.232;3.764;2023-08-08T22:59:45;16.50;99.90
13446;DHT22;6795;51.232;3.764;2023-08-08T23:03:06;16.60;99.90
13446;DHT22;6795;51.232;3.764;2023-08-08T23:06:24;16.60;99.90
13446;DHT22;6795;51.232;3.764;2023-08-08T23:09:40;16.60;99.90
13446;DHT22;6795;51.232;3.764;2023-08-08T23:13:00;16.60;99.90
13446;DHT22;6795;51.232;3.764;2023-08-08T23:16:17;16.50;99.90
13446;DHT22;6795;51.232;3.764;2023-08-08T23:20:03;16.60;99.90
13446;DHT22;6795;51.232;3.764;2023-08-08T23:23:13;16.60;99.90
13446;DHT22;6795;51.232;3.764;2023-08-08T23:26:18;16.60;99.90
13446;DHT22;6795;51.232;3.764;2023-08-08T23:29:48;16.60;99.90
13446;DHT22;6795;51.232;3.764;2023-08-08T23:33:31;16.60;99.90
13446;DHT22;6795;51.232;3.764;2023-08-08T23:36:59;16.60;99.90